Terminal Aerodrome Forecast
Issued by NWS Wakefield, VA

Home | Current Version | Previous Version | Text Only | Print | Product List | Glossary On
Versions: 1 2 3 4 5 6 7 8 9 10 11 12 13 14 15 16 17 18 19
000
FTUS41 KAKQ 221700
TAFSBY
TAF
KSBY 221740Z 2218/2318 VRB05KT P6SM SCT025 BKN150
     FM230200 05004KT 3SM BR BKN015
     FM230500 07002KT 2SM BR BKN008
     FM231400 09006KT P6SM BKN018=

USA.gov is the U.S. government's official web portal to all federal, state and local government web resources and services.